createdAt,value
2022-08-17T00:00:14.701Z,8.63
2022-08-17T00:03:10.445Z,8.55
2022-08-17T00:06:00.118Z,9.35
2022-08-17T00:08:35.770Z,8.80
2022-08-17T00:11:08.037Z,8.85
2022-08-17T00:13:39.038Z,8.57
2022-08-17T00:16:18.572Z,8.98
2022-08-17T00:19:00.382Z,9.45
2022-08-17T00:22:30.130Z,8.50
2022-08-17T00:24:24.427Z,8.57
2022-08-17T00:26:52.630Z,9.07
2022-08-17T00:29:20.463Z,9.25
2022-08-17T00:31:48.725Z,9.77
2022-08-17T00:34:16.544Z,8.80
2022-08-17T00:36:43.971Z,8.43
2022-08-17T00:39:11.332Z,9.38
2022-08-17T00:41:40.134Z,9.20
2022-08-17T00:44:12.415Z,9.17
2022-08-17T00:46:43.790Z,9.35
2022-08-17T00:49:12.790Z,9.47
2022-08-17T00:51:40.155Z,9.15
2022-08-17T00:54:13.365Z,8.98
2022-08-17T00:56:46.303Z,9.55
2022-08-17T00:59:19.933Z,9.68
2022-08-17T01:01:49.566Z,9.68
2022-08-17T01:04:19.186Z,9.70
2022-08-17T01:06:49.735Z,9.85
2022-08-17T01:09:19.521Z,9.40
2022-08-17T01:11:52.307Z,9.55
2022-08-17T01:14:25.007Z,9.73
2022-08-17T01:16:55.163Z,9.82
2022-08-17T01:19:26.320Z,9.43
2022-08-17T01:22:08.637Z,9.37
2022-08-17T01:24:37.814Z,10.10
2022-08-17T01:27:08.050Z,9.85
2022-08-17T01:29:41.241Z,9.02
2022-08-17T01:32:09.292Z,9.27
2022-08-17T01:34:43.365Z,9.57
2022-08-17T01:37:13.671Z,9.90
2022-08-17T01:39:51.626Z,9.57
2022-08-17T01:42:26.477Z,9.90
2022-08-17T01:44:57.902Z,9.27
2022-08-17T01:47:25.354Z,9.38
2022-08-17T01:49:52.839Z,9.57
2022-08-17T01:52:22.129Z,9.10
2022-08-17T01:54:51.269Z,9.45
2022-08-17T01:57:18.846Z,9.07
2022-08-17T01:59:46.256Z,9.52
2022-08-17T02:02:30.425Z,9.30
2022-08-17T02:05:01.416Z,9.10
2022-08-17T02:07:29.263Z,9.05
2022-08-17T02:09:57.021Z,9.23
2022-08-17T02:12:37.668Z,8.65
2022-08-17T02:15:08.174Z,10.15
2022-08-17T02:17:35.949Z,9.25
2022-08-17T02:20:04.798Z,9.38
2022-08-17T02:22:32.311Z,9.80
2022-08-17T02:25:02.373Z,9.55
2022-08-17T02:27:30.900Z,8.75
2022-08-17T02:29:58.451Z,8.82
2022-08-17T02:32:27.970Z,9.05
2022-08-17T02:34:57.520Z,8.63
2022-08-17T02:37:26.246Z,9.48
2022-08-17T02:39:53.624Z,9.05
2022-08-17T02:42:27.920Z,8.48
2022-08-17T02:44:55.309Z,8.88
2022-08-17T02:47:22.545Z,8.80
2022-08-17T02:49:54.253Z,9.40
2022-08-17T02:52:43.252Z,8.85
2022-08-17T02:55:24.613Z,9.43
2022-08-17T02:57:52.707Z,9.15
2022-08-17T03:00:34.163Z,8.80
2022-08-17T03:03:03.581Z,8.90
2022-08-17T03:05:33.131Z,8.57
2022-08-17T03:08:01.259Z,9.35
2022-08-17T03:10:29.820Z,8.88
2022-08-17T03:12:57.595Z,8.75
2022-08-17T03:15:28.773Z,9.70
2022-08-17T03:17:56.884Z,9.20
2022-08-17T03:20:25.952Z,9.05
2022-08-17T03:23:01.769Z,9.07
2022-08-17T03:25:34.548Z,8.82
2022-08-17T03:28:01.942Z,9.07
2022-08-17T03:30:29.939Z,9.05
2022-08-17T03:33:00.246Z,9.57
2022-08-17T03:35:31.546Z,9.50
2022-08-17T03:38:02.555Z,8.55
2022-08-17T03:40:34.529Z,9.20
2022-08-17T03:43:20.848Z,8.98
2022-08-17T03:46:20.728Z,9.52
2022-08-17T03:49:13.400Z,9.57
2022-08-17T03:51:59.134Z,9.90
2022-08-17T03:54:45.049Z,9.68
2022-08-17T03:57:13.779Z,8.73
2022-08-17T03:59:41.246Z,9.88
2022-08-17T04:02:13.211Z,9.48
2022-08-17T04:07:08.570Z,9.38
2022-08-17T04:09:36.705Z,9.15
2022-08-17T04:12:05.283Z,9.18
2022-08-17T04:14:39.342Z,9.68
2022-08-17T04:17:26.401Z,9.00
2022-08-17T04:19:54.963Z,9.85
2022-08-17T04:22:30.689Z,9.95
2022-08-17T04:25:22.267Z,9.85
2022-08-17T04:27:49.671Z,9.95
2022-08-17T04:30:17.226Z,9.98
2022-08-17T04:33:04.895Z,9.05
2022-08-17T04:35:47.721Z,9.60
2022-08-17T04:38:21.287Z,9.85
2022-08-17T04:41:07.588Z,9.65
2022-08-17T04:43:36.786Z,9.98
2022-08-17T04:46:10.267Z,9.88
2022-08-17T04:48:40.833Z,9.07
2022-08-17T04:51:11.415Z,9.75
2022-08-17T04:53:40.445Z,10.02
2022-08-17T04:56:11.688Z,9.85
2022-08-17T04:58:45.942Z,9.40
2022-08-17T05:01:13.769Z,10.02
2022-08-17T05:03:42.028Z,9.57
2022-08-17T05:06:09.501Z,10.75
2022-08-17T05:08:38.957Z,10.50
2022-08-17T05:11:06.532Z,9.55
2022-08-17T05:13:34.316Z,10.25
2022-08-17T05:16:03.476Z,9.50
2022-08-17T05:18:31.641Z,9.43
2022-08-17T05:20:59.188Z,9.27
2022-08-17T05:23:34.994Z,10.48
2022-08-17T05:26:25.681Z,9.60
2022-08-17T05:28:57.001Z,10.07
2022-08-17T05:31:25.871Z,11.10
2022-08-17T05:33:53.502Z,11.63
2022-08-17T05:36:42.331Z,11.43
2022-08-17T05:39:08.387Z,11.32
2022-08-17T05:41:43.154Z,11.25
2022-08-17T05:44:10.476Z,11.65
2022-08-17T05:46:43.620Z,12.55
2022-08-17T05:49:13.352Z,11.65
2022-08-17T05:52:00.147Z,10.65
2022-08-17T05:54:36.062Z,11.25
2022-08-17T05:57:28.438Z,10.80
2022-08-17T06:00:01.429Z,10.27
2022-08-17T06:03:07.380Z,9.98
2022-08-17T06:05:43.860Z,10.05
2022-08-17T06:08:27.057Z,10.70
2022-08-17T06:11:03.121Z,10.00
2022-08-17T06:14:14.911Z,10.15
2022-08-17T06:16:48.674Z,10.93
2022-08-17T06:19:36.350Z,10.35
2022-08-17T06:22:06.270Z,10.48
2022-08-17T06:24:42.119Z,12.02
2022-08-17T06:27:25.653Z,10.63
2022-08-17T06:30:16.020Z,10.10
2022-08-17T06:32:46.224Z,9.90
2022-08-17T06:35:18.582Z,10.32
2022-08-17T06:38:02.310Z,9.93
2022-08-17T06:40:45.709Z,10.13
2022-08-17T06:43:34.243Z,9.55
2022-08-17T06:46:13.226Z,10.30
2022-08-17T06:48:43.587Z,9.95
2022-08-17T06:51:17.199Z,9.80
2022-08-17T06:53:45.398Z,10.60
2022-08-17T06:56:19.945Z,9.75
2022-08-17T06:58:48.475Z,9.52
2022-08-17T07:01:19.299Z,9.13
2022-08-17T07:03:54.844Z,8.75
2022-08-17T07:06:26.775Z,9.32
2022-08-17T07:11:34.082Z,8.60
2022-08-17T07:14:36.674Z,8.85
2022-08-17T07:17:15.614Z,8.23
2022-08-17T07:19:45.792Z,8.45
2022-08-17T07:22:53.525Z,8.07
2022-08-17T07:25:28.695Z,8.57
2022-08-17T07:27:59.879Z,8.70
2022-08-17T07:30:49.377Z,7.78
2022-08-17T07:33:25.853Z,8.30
2022-08-17T07:35:54.023Z,8.32
2022-08-17T07:38:25.967Z,8.20
2022-08-17T07:40:59.171Z,8.07
2022-08-17T07:43:31.283Z,7.95
2022-08-17T07:46:34.465Z,7.60
2022-08-17T07:49:03.552Z,7.55
2022-08-17T07:51:41.400Z,8.80
2022-08-17T07:54:22.667Z,8.25
2022-08-17T07:57:03.497Z,8.25
2022-08-17T07:59:34.047Z,8.70
2022-08-17T08:02:17.178Z,8.25
2022-08-17T08:05:01.118Z,8.30
2022-08-17T08:08:00.426Z,8.20
2022-08-17T08:10:36.940Z,8.10
2022-08-17T08:13:21.302Z,8.40
2022-08-17T08:15:54.087Z,8.43
2022-08-17T08:18:54.689Z,8.32
2022-08-17T08:21:29.137Z,9.07
2022-08-17T08:24:22.250Z,8.43
2022-08-17T08:27:11.174Z,8.07
2022-08-17T08:29:57.045Z,8.10
2022-08-17T08:32:45.073Z,9.35
2022-08-17T08:35:35.095Z,8.07
2022-08-17T08:38:23.960Z,7.78
2022-08-17T08:41:08.455Z,8.00
2022-08-17T08:44:00.884Z,7.53
2022-08-17T08:46:44.084Z,8.02
2022-08-17T08:50:03.297Z,8.15
2022-08-17T08:53:03.775Z,7.68
2022-08-17T08:55:54.350Z,7.90
2022-08-17T08:58:41.881Z,7.25
2022-08-17T09:01:38.237Z,7.85
2022-08-17T09:04:25.545Z,7.65
2022-08-17T09:07:07.712Z,7.50
2022-08-17T09:09:45.437Z,7.97
2022-08-17T09:12:33.346Z,7.40
2022-08-17T09:15:13.353Z,7.60
2022-08-17T09:19:02.862Z,7.80
2022-08-17T09:21:04.438Z,7.50
2022-08-17T09:23:45.458Z,7.53
2022-08-17T09:26:23.027Z,7.22
2022-08-17T09:29:00.373Z,6.93
2022-08-17T09:31:49.216Z,7.53
2022-08-17T09:34:28.162Z,7.93
2022-08-17T09:37:18.753Z,7.40
2022-08-17T09:39:57.153Z,7.18
2022-08-17T09:42:36.135Z,7.22
2022-08-17T09:45:23.965Z,6.93
2022-08-17T09:48:23.065Z,7.20
2022-08-17T09:51:03.288Z,7.30
2022-08-17T09:53:38.293Z,6.90
2022-08-17T09:56:24.299Z,7.00
2022-08-17T09:59:38.398Z,6.82
2022-08-17T10:02:39.563Z,7.07
2022-08-17T10:05:37.667Z,7.35
2022-08-17T10:08:09.421Z,7.15
2022-08-17T10:11:06.043Z,7.50
2022-08-17T10:13:59.578Z,7.60
2022-08-17T10:16:38.406Z,7.43
2022-08-17T10:19:18.348Z,7.75
2022-08-17T10:22:32.617Z,7.68
2022-08-17T10:25:23.654Z,7.75
2022-08-17T10:27:57.719Z,7.50
2022-08-17T10:30:28.920Z,7.28
2022-08-17T10:33:15.587Z,7.90
2022-08-17T10:36:10.925Z,7.80
2022-08-17T10:38:51.449Z,7.40
2022-08-17T10:41:21.444Z,7.15
2022-08-17T10:44:36.679Z,7.78
2022-08-17T10:46:50.698Z,8.07
2022-08-17T10:49:17.899Z,7.78
2022-08-17T10:51:53.585Z,7.47
2022-08-17T10:54:41.258Z,7.03
2022-08-17T10:57:34.760Z,7.25
2022-08-17T11:00:23.062Z,6.90
2022-08-17T11:02:58.609Z,7.35
2022-08-17T11:06:14.206Z,6.97
2022-08-17T11:08:50.313Z,7.22
2022-08-17T11:11:38.758Z,7.00
2022-08-17T11:14:24.084Z,6.80
2022-08-17T11:17:15.565Z,7.40
2022-08-17T11:22:34.181Z,7.07
2022-08-17T11:25:31.912Z,7.45
2022-08-17T11:28:20.085Z,7.38
2022-08-17T11:30:51.385Z,6.78
2022-08-17T11:33:34.157Z,6.90
2022-08-17T11:36:20.032Z,6.75
2022-08-17T11:39:25.178Z,8.07
2022-08-17T11:42:25.616Z,7.28
2022-08-17T11:45:03.362Z,7.50
2022-08-17T11:48:26.550Z,7.70
2022-08-17T11:51:09.790Z,7.00
2022-08-17T11:53:40.103Z,7.88
2022-08-17T11:56:29.000Z,7.32
2022-08-17T11:58:56.489Z,7.30
2022-08-17T12:01:24.357Z,7.15
2022-08-17T12:04:03.879Z,7.25
2022-08-17T12:06:33.496Z,7.38
2022-08-17T12:09:36.092Z,7.20
2022-08-17T12:12:14.673Z,7.32
2022-08-17T12:15:09.635Z,7.22
2022-08-17T12:17:40.434Z,7.35
2022-08-17T12:20:20.285Z,6.78
2022-08-17T12:23:20.668Z,7.03
2022-08-17T12:25:52.891Z,7.35
2022-08-17T12:28:28.635Z,7.10
2022-08-17T12:31:00.491Z,7.03
2022-08-17T12:33:28.950Z,7.32
2022-08-17T12:36:06.498Z,6.95
2022-08-17T12:38:36.265Z,7.32
2022-08-17T12:41:26.108Z,6.88
2022-08-17T12:44:02.453Z,7.15
2022-08-17T12:46:44.916Z,7.38
2022-08-17T12:49:22.987Z,7.63
2022-08-17T12:51:53.659Z,7.53
2022-08-17T12:54:27.339Z,7.53
2022-08-17T12:56:55.107Z,7.80
2022-08-17T12:59:29.808Z,7.45
2022-08-17T13:01:59.318Z,7.80
2022-08-17T13:04:29.657Z,7.75
2022-08-17T13:07:00.225Z,8.20
2022-08-17T13:09:36.038Z,8.77
2022-08-17T13:12:08.621Z,7.43
2022-08-17T13:14:36.331Z,7.90
2022-08-17T13:17:09.914Z,8.38
2022-08-17T13:19:49.631Z,7.88
2022-08-17T13:22:22.420Z,7.82
2022-08-17T13:24:56.230Z,7.90
2022-08-17T13:27:26.563Z,8.20
2022-08-17T13:29:59.752Z,7.78
2022-08-17T13:32:40.435Z,7.70
2022-08-17T13:35:41.006Z,7.53
2022-08-17T13:38:13.533Z,7.25
2022-08-17T13:40:50.135Z,7.47
2022-08-17T13:43:40.672Z,7.57
2022-08-17T13:46:22.597Z,8.00
2022-08-17T13:49:03.162Z,7.90
2022-08-17T13:51:43.457Z,7.72
2022-08-17T13:54:37.694Z,7.30
2022-08-17T13:57:20.852Z,7.75
2022-08-17T13:59:55.268Z,7.93
2022-08-17T14:02:27.988Z,8.10
2022-08-17T14:04:57.473Z,7.40
2022-08-17T14:07:30.285Z,7.85
2022-08-17T14:10:07.977Z,7.15
2022-08-17T14:12:37.698Z,6.95
2022-08-17T14:15:06.675Z,6.97
2022-08-17T14:17:38.638Z,7.13
2022-08-17T14:20:09.652Z,6.60
2022-08-17T14:22:40.093Z,6.93
2022-08-17T14:25:08.616Z,6.70
2022-08-17T14:27:53.229Z,6.90
2022-08-17T14:30:29.697Z,6.50
2022-08-17T14:32:58.931Z,6.55
2022-08-17T14:35:28.281Z,6.70
2022-08-17T14:37:56.306Z,6.73
2022-08-17T14:40:25.224Z,6.90
2022-08-17T14:42:55.327Z,6.88
2022-08-17T14:45:29.850Z,7.10
2022-08-17T14:48:07.857Z,6.88
2022-08-17T14:50:36.305Z,7.07
2022-08-17T14:53:08.027Z,6.93
2022-08-17T14:55:36.974Z,7.22
2022-08-17T14:58:04.252Z,7.15
2022-08-17T15:00:32.696Z,8.00
2022-08-17T15:03:01.214Z,7.97
2022-08-17T15:05:35.115Z,7.32
2022-08-17T15:08:03.879Z,7.70
2022-08-17T15:10:31.917Z,7.47
2022-08-17T15:13:00.458Z,7.70
2022-08-17T15:15:28.713Z,8.40
2022-08-17T15:17:56.272Z,8.43
2022-08-17T15:20:28.604Z,8.35
2022-08-17T15:22:57.600Z,8.40
2022-08-17T15:25:28.447Z,8.20
2022-08-17T15:27:56.196Z,8.25
2022-08-17T15:30:25.841Z,7.88
2022-08-17T15:32:55.225Z,7.35
2022-08-17T15:35:27.115Z,7.55
2022-08-17T15:37:55.065Z,8.18
2022-08-17T15:40:22.750Z,7.85
2022-08-17T15:42:51.224Z,7.82
2022-08-17T15:45:23.067Z,8.10
2022-08-17T15:47:50.909Z,8.00
2022-08-17T15:50:18.426Z,7.20
2022-08-17T15:52:50.360Z,7.32
2022-08-17T15:55:23.992Z,7.63
2022-08-17T15:57:52.426Z,7.70
2022-08-17T16:00:20.678Z,7.53
2022-08-17T16:03:45.812Z,7.13
2022-08-17T16:05:36.312Z,7.47
2022-08-17T16:08:04.623Z,7.70
2022-08-17T16:10:35.365Z,7.40
2022-08-17T16:13:04.494Z,7.90
2022-08-17T16:15:32.325Z,7.85
2022-08-17T16:17:59.815Z,7.50
2022-08-17T16:20:27.777Z,7.78
2022-08-17T16:22:57.667Z,8.00
2022-08-17T16:25:51.898Z,7.68
2022-08-17T16:28:17.876Z,7.50
2022-08-17T16:30:45.617Z,8.02
2022-08-17T16:33:13.710Z,7.40
2022-08-17T16:35:42.144Z,8.05
2022-08-17T16:38:09.691Z,8.00
2022-08-17T16:40:38.270Z,8.07
2022-08-17T16:43:12.190Z,6.93
2022-08-17T16:45:40.851Z,7.18
2022-08-17T16:48:10.090Z,7.35
2022-08-17T16:50:37.820Z,7.05
2022-08-17T16:53:11.790Z,7.20
2022-08-17T16:55:39.124Z,6.90
2022-08-17T16:58:08.868Z,7.03
2022-08-17T17:00:37.160Z,6.60
2022-08-17T17:03:26.138Z,7.07
2022-08-17T17:06:08.763Z,7.00
2022-08-17T17:08:48.976Z,7.20
2022-08-17T17:11:25.102Z,7.35
2022-08-17T17:14:01.635Z,7.20
2022-08-17T17:16:46.487Z,7.57
2022-08-17T17:19:35.131Z,6.95
2022-08-17T17:22:20.455Z,7.05
2022-08-17T17:25:15.542Z,7.13
2022-08-17T17:28:06.290Z,7.18
2022-08-17T17:30:42.785Z,6.93
2022-08-17T17:33:17.893Z,7.53
2022-08-17T17:35:56.774Z,7.38
2022-08-17T17:38:30.059Z,7.57
2022-08-17T17:41:04.597Z,7.60
2022-08-17T17:43:39.643Z,7.47
2022-08-17T17:46:38.761Z,7.85
2022-08-17T17:49:06.638Z,7.82
2022-08-17T17:52:09.453Z,7.88
2022-08-17T17:54:55.908Z,7.35
2022-08-17T17:57:51.414Z,8.02
2022-08-17T18:00:34.573Z,7.72
2022-08-17T18:03:11.627Z,7.28
2022-08-17T18:06:04.331Z,10.90
2022-08-17T18:08:53.485Z,12.98
2022-08-17T18:11:35.118Z,16.25
2022-08-17T18:16:32.914Z,9.45
2022-08-17T18:19:01.149Z,8.55
2022-08-17T18:21:44.440Z,8.93
2022-08-17T18:24:12.939Z,8.15
2022-08-17T18:26:45.136Z,9.02
2022-08-17T18:29:36.808Z,7.93
2022-08-17T18:32:21.670Z,8.65
2022-08-17T18:34:58.511Z,8.20
2022-08-17T18:37:37.968Z,7.65
2022-08-17T18:40:17.859Z,7.85
2022-08-17T18:43:00.361Z,8.25
2022-08-17T18:45:33.482Z,7.65
2022-08-17T18:48:01.838Z,7.57
2022-08-17T18:50:39.698Z,7.53
2022-08-17T18:53:33.428Z,7.60
2022-08-17T18:56:31.384Z,8.25
2022-08-17T18:59:23.376Z,8.68
2022-08-17T19:01:59.215Z,8.48
2022-08-17T19:04:55.919Z,8.52
2022-08-17T19:07:25.700Z,8.50
2022-08-17T19:10:05.056Z,7.97
2022-08-17T19:12:39.297Z,7.60
2022-08-17T19:15:09.422Z,8.20
2022-08-17T19:17:46.944Z,7.75
2022-08-17T19:20:36.952Z,8.00
2022-08-17T19:23:13.746Z,8.00
2022-08-17T19:25:47.865Z,8.30
2022-08-17T19:28:33.852Z,8.13
2022-08-17T19:31:08.663Z,8.70
2022-08-17T19:33:37.675Z,8.80
2022-08-17T19:36:26.237Z,9.05
2022-08-17T19:39:11.335Z,8.60
2022-08-17T19:42:10.370Z,9.13
2022-08-17T19:44:37.788Z,9.45
2022-08-17T19:47:54.330Z,9.48
2022-08-17T19:50:48.532Z,10.68
2022-08-17T19:54:01.723Z,9.77
2022-08-17T19:56:55.553Z,9.40
2022-08-17T19:59:38.350Z,9.88
2022-08-17T20:02:24.521Z,9.43
2022-08-17T20:04:53.307Z,9.13
2022-08-17T20:07:28.700Z,9.32
2022-08-17T20:10:11.707Z,9.30
2022-08-17T20:12:42.923Z,8.50
2022-08-17T20:15:23.097Z,9.17
2022-08-17T20:17:51.295Z,9.18
2022-08-17T20:20:32.946Z,8.98
2022-08-17T20:23:26.310Z,9.00
2022-08-17T20:25:59.367Z,9.57
2022-08-17T20:28:30.709Z,9.50
2022-08-17T20:30:58.683Z,9.47
2022-08-17T20:33:31.691Z,9.15
2022-08-17T20:36:14.320Z,9.38
2022-08-17T20:38:45.857Z,9.40
2022-08-17T20:41:16.934Z,9.65
2022-08-17T20:44:05.619Z,8.47
2022-08-17T20:46:38.893Z,9.43
2022-08-17T20:49:08.960Z,8.90
2022-08-17T20:52:00.912Z,9.27
2022-08-17T20:54:46.222Z,8.90
2022-08-17T20:57:34.425Z,10.25
2022-08-17T21:00:32.500Z,11.82
2022-08-17T21:03:24.493Z,10.05
2022-08-17T21:06:00.824Z,9.48
2022-08-17T21:08:32.341Z,10.48
2022-08-17T21:11:21.009Z,10.27
2022-08-17T21:14:28.652Z,9.30
2022-08-17T21:17:02.543Z,9.52
2022-08-17T21:20:09.792Z,8.80
2022-08-17T21:22:49.365Z,9.80
2022-08-17T21:25:19.673Z,9.65
2022-08-17T21:28:01.641Z,10.45
2022-08-17T21:33:18.724Z,9.65
2022-08-17T21:35:58.714Z,9.60
2022-08-17T21:38:37.352Z,9.52
2022-08-17T21:41:04.939Z,10.05
2022-08-17T21:43:35.628Z,9.60
2022-08-17T21:46:10.739Z,9.65
2022-08-17T21:48:48.237Z,10.85
2022-08-17T21:51:26.426Z,10.15
2022-08-17T21:53:57.301Z,9.73
2022-08-17T21:56:36.458Z,9.93
2022-08-17T21:59:20.192Z,9.57
2022-08-17T22:01:57.713Z,9.77
2022-08-17T22:04:37.683Z,9.65
2022-08-17T22:07:11.324Z,9.40
2022-08-17T22:09:48.125Z,9.82
2022-08-17T22:12:22.240Z,9.55
2022-08-17T22:15:02.485Z,8.85
2022-08-17T22:17:35.689Z,9.35
2022-08-17T22:20:14.357Z,9.23
2022-08-17T22:23:12.378Z,9.20
2022-08-17T22:26:12.532Z,10.43
2022-08-17T22:28:54.775Z,9.85
2022-08-17T22:31:28.496Z,10.10
2022-08-17T22:34:01.605Z,9.43
2022-08-17T22:36:35.909Z,9.43
2022-08-17T22:39:09.377Z,9.68
2022-08-17T22:41:42.941Z,9.85
2022-08-17T22:44:21.178Z,9.55
2022-08-17T22:46:58.837Z,9.48
2022-08-17T22:49:54.272Z,9.52
2022-08-17T22:53:01.586Z,9.85
2022-08-17T22:55:50.488Z,9.85
2022-08-17T22:58:43.058Z,9.32
2022-08-17T23:01:32.504Z,10.57
2022-08-17T23:04:04.741Z,10.45
2022-08-17T23:06:36.416Z,9.77
2022-08-17T23:09:05.903Z,10.00
2022-08-17T23:11:48.634Z,9.27
2022-08-17T23:14:20.005Z,9.25
2022-08-17T23:16:50.306Z,9.45
2022-08-17T23:19:21.099Z,9.18
2022-08-17T23:21:50.583Z,9.45
2022-08-17T23:24:23.557Z,9.90
2022-08-17T23:26:51.060Z,9.77
2022-08-17T23:29:20.716Z,10.77
2022-08-17T23:31:49.396Z,9.73
2022-08-17T23:34:18.597Z,10.07
2022-08-17T23:36:53.320Z,9.80
2022-08-17T23:39:24.552Z,9.27
2022-08-17T23:42:00.284Z,9.55
2022-08-17T23:44:29.060Z,9.35
2022-08-17T23:46:57.134Z,9.25
2022-08-17T23:49:25.291Z,9.25
2022-08-17T23:51:55.863Z,9.40
2022-08-17T23:54:25.245Z,10.13
2022-08-17T23:56:53.103Z,10.27
2022-08-17T23:59:22.693Z,9.52
